createdAt,value
2018-05-03T00:02:15.944Z,16.80
2018-05-03T00:04:45.325Z,16.80
2018-05-03T00:07:14.305Z,16.60
2018-05-03T00:09:43.485Z,16.60
2018-05-03T00:12:12.085Z,16.60
2018-05-03T00:14:41.285Z,16.70
2018-05-03T00:17:10.048Z,16.80
2018-05-03T00:19:40.065Z,16.80
2018-05-03T00:22:09.445Z,16.80
2018-05-03T00:24:38.025Z,16.80
2018-05-03T00:27:07.285Z,16.70
2018-05-03T00:29:35.864Z,16.70
2018-05-03T00:32:06.545Z,16.70
2018-05-03T00:34:34.587Z,16.70
2018-05-03T00:37:04.645Z,16.70
2018-05-03T00:39:34.805Z,16.70
2018-05-03T00:42:04.845Z,16.60
2018-05-03T00:44:38.165Z,16.60
2018-05-03T00:47:07.927Z,16.70
2018-05-03T00:49:36.907Z,16.60
2018-05-03T00:52:05.944Z,16.60
2018-05-03T00:54:47.224Z,16.70
2018-05-03T00:57:15.764Z,16.70
2018-05-03T00:59:44.884Z,16.80
2018-05-03T01:02:13.684Z,16.70
2018-05-03T01:04:43.217Z,16.70
2018-05-03T01:07:14.184Z,16.80
2018-05-03T01:09:42.684Z,16.70
2018-05-03T01:12:11.084Z,16.80
2018-05-03T01:14:40.524Z,16.80
2018-05-03T01:17:09.664Z,16.70
2018-05-03T01:19:39.445Z,16.70
2018-05-03T01:22:08.424Z,16.70
2018-05-03T01:24:37.924Z,16.70
2018-05-03T01:27:07.504Z,16.70
2018-05-03T01:29:36.987Z,16.70
2018-05-03T01:32:06.184Z,16.70
2018-05-03T01:34:34.924Z,16.70
2018-05-03T01:37:03.924Z,16.70
2018-05-03T01:39:33.685Z,16.80
2018-05-03T01:42:02.448Z,16.70
2018-05-03T01:44:31.165Z,16.70
2018-05-03T01:47:00.686Z,16.70
2018-05-03T01:49:29.605Z,16.70
2018-05-03T01:51:58.644Z,16.70
2018-05-03T01:54:27.305Z,16.70
2018-05-03T01:56:55.845Z,16.70
2018-05-03T01:59:25.144Z,16.70
2018-05-03T02:01:54.105Z,16.60
2018-05-03T02:04:23.606Z,16.50
2018-05-03T02:06:52.104Z,16.50
2018-05-03T02:09:20.964Z,16.50
2018-05-03T02:11:49.844Z,16.40
2018-05-03T02:14:19.484Z,16.50
2018-05-03T02:16:48.065Z,16.50
2018-05-03T02:19:16.744Z,16.50
2018-05-03T02:21:46.051Z,16.50
2018-05-03T02:24:15.045Z,16.60
2018-05-03T02:26:43.785Z,16.60
2018-05-03T02:29:12.104Z,16.50
2018-05-03T02:31:40.645Z,16.50
2018-05-03T02:34:09.265Z,16.60
2018-05-03T02:36:38.485Z,16.60
2018-05-03T02:39:07.205Z,16.60
2018-05-03T02:41:36.465Z,16.60
2018-05-03T02:44:05.725Z,16.60
2018-05-03T02:46:34.705Z,16.60
2018-05-03T02:49:03.445Z,16.50
2018-05-03T02:51:32.945Z,16.40
2018-05-03T02:54:02.485Z,16.30
2018-05-03T02:56:31.705Z,16.20
2018-05-03T02:59:11.586Z,16.10
2018-05-03T03:01:57.845Z,16.20
2018-05-03T03:04:43.485Z,16.20
2018-05-03T03:14:06.685Z,16.10
2018-05-03T03:17:07.425Z,16.10
2018-05-03T03:23:07.629Z,15.90
2018-05-03T03:26:02.705Z,15.90
2018-05-03T03:28:48.505Z,15.90
2018-05-03T03:31:34.232Z,15.90
2018-05-03T03:34:13.749Z,15.80
2018-05-03T03:40:01.946Z,15.80
2018-05-03T03:45:43.852Z,15.70
2018-05-03T03:48:12.911Z,15.70
2018-05-03T03:50:41.665Z,15.80
2018-05-03T03:53:10.972Z,15.70
2018-05-03T03:55:39.393Z,15.70
2018-05-03T03:58:08.224Z,15.70
2018-05-03T04:00:37.125Z,15.70
2018-05-03T04:03:06.565Z,15.70
2018-05-03T04:05:35.604Z,15.80
2018-05-03T04:08:04.344Z,15.80
2018-05-03T04:10:33.485Z,15.80
2018-05-03T04:13:01.944Z,15.80
2018-05-03T04:15:31.065Z,15.80
2018-05-03T04:18:12.365Z,15.80
2018-05-03T04:21:01.825Z,15.80
2018-05-03T04:23:42.086Z,15.90
2018-05-03T04:26:10.825Z,15.90
2018-05-03T04:28:39.772Z,15.90
2018-05-03T04:31:08.305Z,16.00
2018-05-03T04:33:37.127Z,16.00
2018-05-03T04:36:06.285Z,16.00
2018-05-03T04:38:35.026Z,16.10
2018-05-03T04:41:04.265Z,16.10
2018-05-03T04:43:33.366Z,16.10
2018-05-03T04:46:02.506Z,16.10
2018-05-03T04:48:31.246Z,16.10
2018-05-03T04:50:59.826Z,16.00
2018-05-03T04:53:28.465Z,16.00
2018-05-03T04:55:56.885Z,16.00
2018-05-03T04:58:26.265Z,16.00
2018-05-03T05:00:54.966Z,16.10
2018-05-03T05:03:26.008Z,16.10
2018-05-03T05:05:55.251Z,16.00
2018-05-03T05:08:23.865Z,16.00
2018-05-03T05:10:53.045Z,16.00
2018-05-03T05:13:21.305Z,16.00
2018-05-03T05:15:50.685Z,16.00
2018-05-03T05:18:20.186Z,16.10
2018-05-03T05:20:49.445Z,16.10
2018-05-03T05:23:17.726Z,16.10
2018-05-03T05:25:47.165Z,16.10
2018-05-03T05:28:15.645Z,16.10
2018-05-03T05:30:44.446Z,16.10
2018-05-03T05:33:14.146Z,16.20
2018-05-03T05:35:43.684Z,16.20
2018-05-03T05:38:12.605Z,16.20
2018-05-03T05:40:41.649Z,16.30
2018-05-03T05:43:11.145Z,16.20
2018-05-03T05:45:39.705Z,16.20
2018-05-03T05:48:08.366Z,16.10
2018-05-03T05:50:38.145Z,16.20
2018-05-03T05:53:07.266Z,16.10
2018-05-03T05:55:36.386Z,16.20
2018-05-03T05:58:05.129Z,16.10
2018-05-03T06:00:34.365Z,16.20
2018-05-03T06:03:03.306Z,16.10
2018-05-03T06:05:32.089Z,16.10
2018-05-03T06:08:01.345Z,16.10
2018-05-03T06:10:30.585Z,16.10
2018-05-03T06:13:00.086Z,16.10
2018-05-03T06:15:28.566Z,16.00
2018-05-03T06:17:57.826Z,16.00
2018-05-03T06:20:27.071Z,16.00
2018-05-03T06:22:55.545Z,16.00
2018-05-03T06:25:24.305Z,16.10
2018-05-03T06:27:53.545Z,16.20
2018-05-03T06:30:23.046Z,16.10
2018-05-03T06:32:52.066Z,16.10
2018-05-03T06:35:22.065Z,16.20
2018-05-03T06:37:51.893Z,16.20
2018-05-03T06:40:21.825Z,16.20
2018-05-03T06:42:50.830Z,16.30
2018-05-03T06:45:19.815Z,16.20
2018-05-03T06:47:48.545Z,16.20
2018-05-03T06:50:17.428Z,16.20
2018-05-03T06:52:46.305Z,16.20
2018-05-03T06:55:15.525Z,16.20
2018-05-03T06:57:45.286Z,16.30
2018-05-03T07:00:13.606Z,16.20
2018-05-03T07:02:43.045Z,16.20
2018-05-03T07:05:12.286Z,16.20
2018-05-03T07:07:41.026Z,16.20
2018-05-03T07:10:11.046Z,16.20
2018-05-03T07:12:40.786Z,16.30
2018-05-03T07:15:10.026Z,16.30
2018-05-03T07:17:39.685Z,16.30
2018-05-03T07:20:09.045Z,16.30
2018-05-03T07:22:38.045Z,16.40
2018-05-03T07:25:06.594Z,16.70
2018-05-03T07:27:35.987Z,17.20
2018-05-03T07:30:04.768Z,17.60
2018-05-03T07:32:34.805Z,17.90
2018-05-03T07:35:03.767Z,17.90
2018-05-03T07:37:32.774Z,17.70
2018-05-03T07:40:02.021Z,17.50
2018-05-03T07:42:32.054Z,17.30
2018-05-03T07:45:00.774Z,17.20
2018-05-03T07:47:29.794Z,17.10
2018-05-03T07:49:59.774Z,17.00
2018-05-03T07:52:29.294Z,17.00
2018-05-03T07:54:58.034Z,17.10
2018-05-03T07:57:27.634Z,17.00
2018-05-03T07:59:56.774Z,17.00
2018-05-03T08:02:26.154Z,17.10
2018-05-03T08:04:55.275Z,17.10
2018-05-03T08:07:24.014Z,17.10
2018-05-03T08:09:52.554Z,17.10
2018-05-03T08:12:22.194Z,17.10
2018-05-03T08:14:52.084Z,17.10
2018-05-03T08:17:20.794Z,17.20
2018-05-03T08:19:50.006Z,17.10
2018-05-03T08:22:18.676Z,17.10
2018-05-03T08:24:47.487Z,17.20
2018-05-03T08:27:16.745Z,17.20
2018-05-03T08:29:46.408Z,17.30
2018-05-03T08:32:14.726Z,17.30
2018-05-03T08:34:43.786Z,17.30
2018-05-03T08:37:13.206Z,17.20
2018-05-03T08:39:42.226Z,17.20
2018-05-03T08:42:11.705Z,17.20
2018-05-03T08:44:40.986Z,17.20
2018-05-03T08:47:10.726Z,17.40
2018-05-03T08:49:40.259Z,17.30
2018-05-03T08:52:09.046Z,17.50
2018-05-03T08:54:38.046Z,17.60
2018-05-03T08:57:06.966Z,17.60
2018-05-03T08:59:37.459Z,17.70
2018-05-03T09:02:06.226Z,17.60
2018-05-03T09:04:35.206Z,17.60
2018-05-03T09:07:04.235Z,17.60
2018-05-03T09:09:32.966Z,17.60
2018-05-03T09:12:02.966Z,17.60
2018-05-03T09:14:31.706Z,17.60
2018-05-03T09:17:00.741Z,17.60
2018-05-03T09:19:29.687Z,17.70
2018-05-03T09:21:58.947Z,17.60
2018-05-03T09:24:28.466Z,16.50
2018-05-03T09:26:57.685Z,17.70
2018-05-03T09:29:25.906Z,17.80
2018-05-03T09:31:55.186Z,17.90
2018-05-03T09:34:24.394Z,18.00
2018-05-03T09:36:53.652Z,18.00
2018-05-03T09:39:22.933Z,18.20
2018-05-03T09:41:52.686Z,18.30
2018-05-03T09:44:21.405Z,18.20
2018-05-03T09:46:49.911Z,18.30
2018-05-03T09:49:18.886Z,18.30
2018-05-03T09:51:47.908Z,18.40
2018-05-03T09:54:16.599Z,18.40
2018-05-03T09:56:45.600Z,18.30
2018-05-03T09:59:14.861Z,18.30
2018-05-03T10:01:43.843Z,18.30
2018-05-03T10:04:12.580Z,18.30
2018-05-03T10:06:41.657Z,18.30
2018-05-03T10:09:10.820Z,18.20
2018-05-03T10:11:40.367Z,18.20
2018-05-03T10:14:09.840Z,18.10
2018-05-03T10:16:38.750Z,18.10
2018-05-03T10:19:07.835Z,18.30
2018-05-03T10:21:37.348Z,18.50
2018-05-03T10:24:06.319Z,18.50
2018-05-03T10:26:34.799Z,18.50
2018-05-03T10:29:03.272Z,18.40
2018-05-03T10:31:32.558Z,18.30
2018-05-03T10:34:01.526Z,18.40
2018-05-03T10:36:30.519Z,18.40
2018-05-03T10:38:59.777Z,18.40
2018-05-03T10:41:28.759Z,18.40
2018-05-03T10:43:57.040Z,18.40
2018-05-03T10:46:25.996Z,18.50
2018-05-03T10:48:55.488Z,18.60
2018-05-03T10:51:24.231Z,18.60
2018-05-03T10:53:52.843Z,18.70
2018-05-03T10:56:22.063Z,18.70
2018-05-03T10:58:50.943Z,18.70
2018-05-03T11:01:19.683Z,18.80
2018-05-03T11:03:48.423Z,18.90
2018-05-03T11:06:17.924Z,18.90
2018-05-03T11:08:46.676Z,19.00
2018-05-03T11:11:16.016Z,19.10
2018-05-03T11:13:45.419Z,19.20
2018-05-03T11:16:14.660Z,19.30
2018-05-03T11:18:43.936Z,19.40
2018-05-03T11:21:14.195Z,19.50
2018-05-03T11:23:43.682Z,19.50
2018-05-03T11:26:12.975Z,19.60
2018-05-03T11:28:42.195Z,19.90
2018-05-03T11:31:10.915Z,20.10
2018-05-03T11:33:39.556Z,20.20
2018-05-03T11:36:08.299Z,20.30
2018-05-03T11:38:37.143Z,20.40
2018-05-03T11:41:05.889Z,20.50
2018-05-03T11:43:35.724Z,20.60
2018-05-03T11:46:05.152Z,20.60
2018-05-03T11:48:34.086Z,20.60
2018-05-03T11:51:03.285Z,20.80
2018-05-03T11:53:32.385Z,21.00
2018-05-03T11:56:01.404Z,20.90
2018-05-03T11:58:30.106Z,20.90
2018-05-03T12:00:59.364Z,20.80
2018-05-03T12:03:28.134Z,20.90
2018-05-03T12:05:57.395Z,20.80
2018-05-03T12:08:26.189Z,20.70
2018-05-03T12:10:55.589Z,20.70
2018-05-03T12:13:24.589Z,20.80
2018-05-03T12:15:53.308Z,20.80
2018-05-03T12:18:22.038Z,20.90
2018-05-03T12:20:51.583Z,20.70
2018-05-03T12:23:20.546Z,20.70
2018-05-03T12:25:49.545Z,20.70
2018-05-03T12:28:18.143Z,20.70
2018-05-03T12:30:48.062Z,20.70
2018-05-03T12:33:17.008Z,20.70
2018-05-03T12:35:46.966Z,20.70
2018-05-03T12:38:15.213Z,20.60
2018-05-03T12:40:45.233Z,20.40
2018-05-03T12:43:14.038Z,20.20
2018-05-03T12:45:43.053Z,20.20
2018-05-03T12:48:12.144Z,20.20
2018-05-03T12:50:40.905Z,20.20
2018-05-03T12:53:10.296Z,20.20
2018-05-03T12:55:39.267Z,20.20
2018-05-03T12:58:08.556Z,20.10
2018-05-03T13:00:37.358Z,20.10
2018-05-03T13:03:05.943Z,20.10
2018-05-03T13:05:34.992Z,20.10
2018-05-03T13:08:04.072Z,20.20
2018-05-03T13:10:33.212Z,20.20
2018-05-03T13:13:02.992Z,20.10
2018-05-03T13:15:32.475Z,20.10
2018-05-03T13:18:01.515Z,20.00
2018-05-03T13:20:31.033Z,20.10
2018-05-03T13:23:00.032Z,20.10
2018-05-03T13:25:29.132Z,20.10
2018-05-03T13:27:57.772Z,20.00
2018-05-03T13:30:27.214Z,19.90
2018-05-03T13:32:56.580Z,19.80
2018-05-03T13:35:25.195Z,19.80
2018-05-03T13:37:53.952Z,19.80
2018-05-03T13:40:22.912Z,19.70
2018-05-03T13:42:51.918Z,19.60
2018-05-03T13:45:20.940Z,19.60
2018-05-03T13:47:50.699Z,19.60
2018-05-03T13:50:20.443Z,19.70
2018-05-03T13:52:49.446Z,19.70
2018-05-03T13:55:18.942Z,19.60
2018-05-03T13:57:47.604Z,19.60
2018-05-03T14:00:16.844Z,19.60
2018-05-03T14:02:46.706Z,19.60
2018-05-03T14:05:15.428Z,19.60
2018-05-03T14:07:44.413Z,19.60
2018-05-03T14:10:13.672Z,19.60
2018-05-03T14:12:42.941Z,19.70
2018-05-03T14:15:12.670Z,19.60
2018-05-03T14:17:41.166Z,19.60
2018-05-03T14:20:09.910Z,19.60
2018-05-03T14:22:38.881Z,19.60
2018-05-03T14:25:07.907Z,19.60
2018-05-03T14:27:37.582Z,19.60
2018-05-03T14:30:06.641Z,19.60
2018-05-03T14:32:35.621Z,19.60
2018-05-03T14:35:04.881Z,19.70
2018-05-03T14:37:34.141Z,19.70
2018-05-03T14:40:03.403Z,19.80
2018-05-03T14:42:33.663Z,19.80
2018-05-03T14:45:02.643Z,19.80
2018-05-03T14:47:31.362Z,19.80
2018-05-03T14:50:00.221Z,19.70
2018-05-03T14:52:29.361Z,19.80
2018-05-03T14:54:58.529Z,19.80
2018-05-03T14:57:27.362Z,19.80
2018-05-03T14:59:56.983Z,19.70
2018-05-03T15:02:26.181Z,19.70
2018-05-03T15:04:55.262Z,19.70
2018-05-03T15:07:24.604Z,19.80
2018-05-03T15:09:53.742Z,19.80
2018-05-03T15:12:23.122Z,19.80
2018-05-03T15:14:52.823Z,19.90
2018-05-03T15:17:22.884Z,19.90
2018-05-03T15:19:51.921Z,19.90
2018-05-03T15:22:21.381Z,19.90
2018-05-03T15:24:50.381Z,19.90
2018-05-03T15:27:19.621Z,19.80
2018-05-03T15:29:48.641Z,19.80
2018-05-03T15:32:18.381Z,19.80
2018-05-03T15:34:47.041Z,19.80
2018-05-03T15:37:15.581Z,19.80
2018-05-03T15:39:44.084Z,19.80
2018-05-03T15:42:14.104Z,19.60
2018-05-03T15:44:42.887Z,19.60
2018-05-03T15:47:11.846Z,19.60
2018-05-03T15:49:40.666Z,19.60
2018-05-03T15:52:09.806Z,19.70
2018-05-03T15:54:38.806Z,19.70
2018-05-03T15:57:08.330Z,19.70
2018-05-03T15:59:38.326Z,19.70
2018-05-03T16:02:07.596Z,19.70
2018-05-03T16:04:37.080Z,19.60
2018-05-03T16:07:06.096Z,19.50
2018-05-03T16:09:35.576Z,19.50
2018-05-03T16:12:04.576Z,19.60
2018-05-03T16:14:33.756Z,19.60
2018-05-03T16:17:03.336Z,19.60
2018-05-03T16:19:32.577Z,19.60
2018-05-03T16:22:01.336Z,19.50
2018-05-03T16:24:30.260Z,19.50
2018-05-03T16:26:59.036Z,19.50
2018-05-03T16:29:27.796Z,19.50
2018-05-03T16:31:57.817Z,19.50
2018-05-03T16:34:27.885Z,19.50
2018-05-03T16:36:57.195Z,19.50
2018-05-03T16:39:26.040Z,19.50
2018-05-03T16:41:56.876Z,19.50
2018-05-03T16:44:26.097Z,19.40
2018-05-03T16:46:55.995Z,19.30
2018-05-03T16:49:24.975Z,19.30
2018-05-03T16:51:54.196Z,19.20
2018-05-03T16:54:23.076Z,19.20
2018-05-03T16:56:52.356Z,19.20
2018-05-03T16:59:21.843Z,19.10
2018-05-03T17:01:50.856Z,19.10
2018-05-03T17:04:20.358Z,19.10
2018-05-03T17:06:49.856Z,19.10
2018-05-03T17:09:19.876Z,19.10
2018-05-03T17:11:49.636Z,19.10
2018-05-03T17:14:19.035Z,19.10
2018-05-03T17:16:47.876Z,19.10
2018-05-03T17:19:16.577Z,19.10
2018-05-03T17:21:46.117Z,19.00
2018-05-03T17:24:14.976Z,18.90
2018-05-03T17:26:44.121Z,18.80
2018-05-03T17:29:13.077Z,18.90
2018-05-03T17:31:42.336Z,18.80
2018-05-03T17:34:11.077Z,18.80
2018-05-03T17:36:39.816Z,18.90
2018-05-03T17:39:09.133Z,18.90
2018-05-03T17:41:39.118Z,18.80
2018-05-03T17:44:07.657Z,18.60
2018-05-03T17:46:37.096Z,18.60
2018-05-03T17:49:06.100Z,18.60
2018-05-03T17:51:34.537Z,18.60
2018-05-03T17:54:04.236Z,18.60
2018-05-03T17:56:33.017Z,18.60
2018-05-03T17:59:02.278Z,18.60
2018-05-03T18:01:31.277Z,18.60
2018-05-03T18:04:00.297Z,18.60
2018-05-03T18:06:29.556Z,18.60
2018-05-03T18:08:58.285Z,18.60
2018-05-03T18:11:27.757Z,18.70
2018-05-03T18:13:56.779Z,18.70
2018-05-03T18:16:25.851Z,18.60
2018-05-03T18:18:54.576Z,18.60
2018-05-03T18:21:22.853Z,18.50
2018-05-03T18:23:51.718Z,18.50
2018-05-03T18:26:20.636Z,18.50
2018-05-03T18:28:49.956Z,18.60
2018-05-03T18:31:18.217Z,18.60
2018-05-03T18:33:47.237Z,18.50
2018-05-03T18:36:15.916Z,18.50
2018-05-03T18:38:45.418Z,18.40
2018-05-03T18:41:14.697Z,18.50
2018-05-03T18:43:44.113Z,18.40
2018-05-03T18:46:12.996Z,18.50
2018-05-03T18:48:41.740Z,18.50
2018-05-03T18:51:10.376Z,18.50
2018-05-03T18:53:38.858Z,18.50
2018-05-03T18:56:07.717Z,18.40
2018-05-03T18:58:36.576Z,18.40
2018-05-03T19:01:05.392Z,18.40
2018-05-03T19:03:33.996Z,18.30
2018-05-03T19:06:02.797Z,18.30
2018-05-03T19:08:31.585Z,18.30
2018-05-03T19:11:00.796Z,18.30
2018-05-03T19:13:29.336Z,18.30
2018-05-03T19:15:58.256Z,18.30
2018-05-03T19:18:27.517Z,18.30
2018-05-03T19:20:56.516Z,18.30
2018-05-03T19:23:26.018Z,18.30
2018-05-03T19:25:55.776Z,18.30
2018-05-03T19:28:25.277Z,18.40
2018-05-03T19:30:54.016Z,18.40
2018-05-03T19:33:22.837Z,18.40
2018-05-03T19:35:51.998Z,18.40
2018-05-03T19:38:21.338Z,18.40
2018-05-03T19:40:49.996Z,18.40
2018-05-03T19:43:18.997Z,18.40
2018-05-03T19:45:47.983Z,18.30
2018-05-03T19:48:19.116Z,18.30
2018-05-03T19:50:47.957Z,18.30
2018-05-03T19:53:16.757Z,18.30
2018-05-03T19:55:45.996Z,18.30
2018-05-03T19:58:14.997Z,18.20
2018-05-03T20:00:44.477Z,18.30
2018-05-03T20:03:14.018Z,18.30
2018-05-03T20:05:43.497Z,18.30
2018-05-03T20:08:11.996Z,18.30
2018-05-03T20:10:41.997Z,18.20
2018-05-03T20:13:11.757Z,18.20
2018-05-03T20:15:41.038Z,18.20
2018-05-03T20:18:10.796Z,18.20
2018-05-03T20:20:40.279Z,18.20
2018-05-03T20:23:09.656Z,18.10
2018-05-03T20:25:38.776Z,18.10
2018-05-03T20:28:07.756Z,18.10
2018-05-03T20:30:36.956Z,18.00
2018-05-03T20:33:07.797Z,18.00
2018-05-03T20:35:36.265Z,17.90
2018-05-03T20:38:04.776Z,17.90
2018-05-03T20:40:33.690Z,17.80
2018-05-03T20:43:02.776Z,17.90
2018-05-03T20:45:32.236Z,17.90
2018-05-03T20:48:01.779Z,17.90
2018-05-03T20:50:31.536Z,18.00
2018-05-03T20:53:01.337Z,18.00
2018-05-03T20:55:30.036Z,17.90
2018-05-03T20:57:59.556Z,18.00
2018-05-03T21:00:29.557Z,18.00
2018-05-03T21:02:59.556Z,18.00
2018-05-03T21:05:28.286Z,17.90
2018-05-03T21:07:57.396Z,17.90
2018-05-03T21:10:26.296Z,17.90
2018-05-03T21:12:55.536Z,17.90
2018-05-03T21:15:24.396Z,17.90
2018-05-03T21:17:53.097Z,17.90
2018-05-03T21:20:21.996Z,17.90
2018-05-03T21:22:51.136Z,17.90
2018-05-03T21:25:19.756Z,17.90
2018-05-03T21:27:48.735Z,18.00
2018-05-03T21:30:18.236Z,18.00
2018-05-03T21:32:47.437Z,18.00
2018-05-03T21:35:16.936Z,18.00
2018-05-03T21:37:45.976Z,18.00
2018-05-03T21:40:14.720Z,18.00
2018-05-03T21:42:43.756Z,17.90
2018-05-03T21:45:12.956Z,17.90
2018-05-03T21:47:42.456Z,17.80
2018-05-03T21:50:11.455Z,17.70
2018-05-03T21:52:40.716Z,17.70
2018-05-03T21:55:10.720Z,17.60
2018-05-03T21:57:39.956Z,17.60
2018-05-03T22:00:09.157Z,17.60
2018-05-03T22:02:38.737Z,17.60
2018-05-03T22:05:08.477Z,17.40
2018-05-03T22:07:37.496Z,17.40
2018-05-03T22:10:06.717Z,17.40
2018-05-03T22:12:35.477Z,17.50
2018-05-03T22:15:04.716Z,17.60
2018-05-03T22:17:33.736Z,17.70
2018-05-03T22:20:03.537Z,17.70
2018-05-03T22:22:32.236Z,17.70
2018-05-03T22:25:01.481Z,17.60
2018-05-03T22:27:30.956Z,17.60
2018-05-03T22:29:59.576Z,17.60
2018-05-03T22:32:29.397Z,17.40
2018-05-03T22:34:58.896Z,17.30
2018-05-03T22:37:27.956Z,17.20
2018-05-03T22:39:57.460Z,17.20
2018-05-03T22:42:25.797Z,17.20
2018-05-03T22:44:54.677Z,17.20
2018-05-03T22:47:23.156Z,17.20
2018-05-03T22:49:52.156Z,17.30
2018-05-03T22:52:20.636Z,17.30
2018-05-03T22:54:49.938Z,17.40
2018-05-03T22:57:18.620Z,17.40
2018-05-03T22:59:47.358Z,17.40
2018-05-03T23:02:16.881Z,17.40
2018-05-03T23:04:46.117Z,17.40
2018-05-03T23:07:15.356Z,17.40
2018-05-03T23:09:44.104Z,17.40
2018-05-03T23:12:12.699Z,17.40
2018-05-03T23:14:41.876Z,17.40
2018-05-03T23:17:10.936Z,17.40
2018-05-03T23:19:40.076Z,17.40
2018-05-03T23:22:09.356Z,17.40
2018-05-03T23:24:38.816Z,17.40
2018-05-03T23:27:07.276Z,17.30
2018-05-03T23:29:36.076Z,17.30
2018-05-03T23:32:05.316Z,17.40
2018-05-03T23:34:35.076Z,17.40
2018-05-03T23:37:04.546Z,17.40
2018-05-03T23:39:33.396Z,17.30
2018-05-03T23:42:03.316Z,17.40
2018-05-03T23:44:32.076Z,17.40
2018-05-03T23:47:01.296Z,17.30
2018-05-03T23:49:30.318Z,17.30
2018-05-03T23:51:59.696Z,17.30
2018-05-03T23:54:28.276Z,17.20
2018-05-03T23:56:57.277Z,17.20
2018-05-03T23:59:26.656Z,17.20
